Airfield :
LOGIN :

Register | Disclaimer

   EN    FR    IT 

 










Legend :    VFR   Marginal VFR   IFR   Intensive IFR   Very Intensive IFR
Visi :
Ceiling :
>= 8 km
>= 3000ft
5 to 8 km
1000 to 3000 ft
1500m to 5 km
500 to 1000 ft
800 to 1500m
200 to 500 ft
< 800m
< 200 ft
Symbols :   Thunderstorms  Fog  Heavy snow  Heavy precipitations  Wind > 20 kt
SIGMETs :     Misc.  Thunderstorms  Icing  Turbulence  Mountain Waves  Volcanic Ashes







- Airport Elevation : 468 ft
- IATA code : GRO


LEGE - Girona Costa Brava

CURRENT METAR :
  • 241330Z 20008KT 160V250 9999 FEW040 27/17 Q1019

EXPIRED METARs :
  • 241300Z 20003KT 9999 FEW040 27/16 Q1019
  • 241230Z 14001KT 9999 FEW040 27/14 Q1019
  • 241200Z 17004KT 9999 FEW040 26/16 Q1019
  • 241130Z 11002KT 9999 FEW030 25/15 Q1019
  • 241100Z 19001KT 9999 FEW030 25/16 Q1019

TAF TAF LEGE
Valid from the 24 at 12:00 until the 25 at 12:00 UTC


241100Z 2412/2512 VRB03KT 9999 FEW015 SCT020 TX29/2413Z TN16/2506Z
TEMPO 2412/2418 18010KT
PROB40
TEMPO 2500/2508 3000 BR BKN008
PROB30
TEMPO 2502/2508 0300 FG VV002
No reported NOTAMs for that airfield.



MET'MAP, your aeronautical weather chart ! - Copyright ORBIFLY December 2007 - Disclaimer

ORBIFLY MET'MAP TEAM :

Programming & Development : Alexandra Zaïnal
Concept & Development : Baudouin d'Aumeries
Co-Development & Prog : Marc-Olivier Méhu
Technical & hardware support : Manuel Goepfert

Contact : metmap@orbifly.com




SOURCES & CREDITS :

   NOAA